sensor_id;sensor_type;location;lat;lon;timestamp;pressure;altitude;pressure_sealevel;temperature;humidity
3780;BME280;1905;52.482;9.802;2023-10-13T00:00:47;100710.16;;;15.29;92.68
3780;BME280;1905;52.482;9.802;2023-10-13T00:03:14;100714.44;;;15.31;94.43
3780;BME280;1905;52.482;9.802;2023-10-13T00:05:43;100715.09;;;15.35;94.83
3780;BME280;1905;52.482;9.802;2023-10-13T00:08:11;100718.53;;;15.37;96.17
3780;BME280;1905;52.482;9.802;2023-10-13T00:10:41;100714.91;;;15.38;96.10
3780;BME280;1905;52.482;9.802;2023-10-13T00:13:09;100711.28;;;15.39;97.32
3780;BME280;1905;52.482;9.802;2023-10-13T00:15:40;100716.59;;;15.39;96.94
3780;BME280;1905;52.482;9.802;2023-10-13T00:18:12;100713.00;;;15.40;95.28
3780;BME280;1905;52.482;9.802;2023-10-13T00:20:41;100707.50;;;15.43;95.90
3780;BME280;1905;52.482;9.802;2023-10-13T00:23:14;100703.69;;;15.47;97.39
3780;BME280;1905;52.482;9.802;2023-10-13T00:25:49;100696.69;;;15.46;97.10
3780;BME280;1905;52.482;9.802;2023-10-13T00:30:52;100696.28;;;15.52;97.81
3780;BME280;1905;52.482;9.802;2023-10-13T00:33:27;100696.28;;;15.52;96.50
3780;BME280;1905;52.482;9.802;2023-10-13T00:35:54;100698.84;;;15.54;96.38
3780;BME280;1905;52.482;9.802;2023-10-13T00:38:24;100698.00;;;15.53;95.87
3780;BME280;1905;52.482;9.802;2023-10-13T00:40:55;100699.53;;;15.57;96.78
3780;BME280;1905;52.482;9.802;2023-10-13T00:43:29;100697.63;;;15.59;96.24
3780;BME280;1905;52.482;9.802;2023-10-13T00:46:02;100691.22;;;15.62;96.65
3780;BME280;1905;52.482;9.802;2023-10-13T00:48:38;100685.78;;;15.63;98.59
3780;BME280;1905;52.482;9.802;2023-10-13T00:51:18;100682.94;;;15.66;97.05
3780;BME280;1905;52.482;9.802;2023-10-13T00:54:00;100681.25;;;15.65;97.98
3780;BME280;1905;52.482;9.802;2023-10-13T00:56:30;100677.63;;;15.66;97.22
3780;BME280;1905;52.482;9.802;2023-10-13T00:58:57;100673.91;;;15.69;97.76
3780;BME280;1905;52.482;9.802;2023-10-13T01:01:29;100671.91;;;15.72;96.72
3780;BME280;1905;52.482;9.802;2023-10-13T01:03:56;100678.94;;;15.73;97.63
3780;BME280;1905;52.482;9.802;2023-10-13T01:06:27;100677.88;;;15.76;97.32
3780;BME280;1905;52.482;9.802;2023-10-13T01:09:00;100676.16;;;15.75;97.77
3780;BME280;1905;52.482;9.802;2023-10-13T01:11:39;100673.19;;;15.79;97.68
3780;BME280;1905;52.482;9.802;2023-10-13T01:14:07;100676.53;;;15.83;98.76
3780;BME280;1905;52.482;9.802;2023-10-13T01:16:35;100666.72;;;15.83;99.29
3780;BME280;1905;52.482;9.802;2023-10-13T01:19:02;100671.13;;;15.84;98.34
3780;BME280;1905;52.482;9.802;2023-10-13T01:21:31;100677.25;;;15.85;95.87
3780;BME280;1905;52.482;9.802;2023-10-13T01:24:01;100665.66;;;15.86;97.96
3780;BME280;1905;52.482;9.802;2023-10-13T01:26:34;100670.69;;;15.90;99.05
3780;BME280;1905;52.482;9.802;2023-10-13T01:29:05;100657.16;;;15.93;98.61
3780;BME280;1905;52.482;9.802;2023-10-13T01:31:44;100653.00;;;15.89;96.35
3780;BME280;1905;52.482;9.802;2023-10-13T01:34:14;100651.84;;;15.93;97.51
3780;BME280;1905;52.482;9.802;2023-10-13T01:36:49;100650.03;;;15.94;96.13
3780;BME280;1905;52.482;9.802;2023-10-13T01:39:19;100646.31;;;15.96;94.83
3780;BME280;1905;52.482;9.802;2023-10-13T01:41:48;100641.72;;;15.98;94.20
3780;BME280;1905;52.482;9.802;2023-10-13T01:44:25;100641.53;;;16.01;96.81
3780;BME280;1905;52.482;9.802;2023-10-13T01:46:54;100642.59;;;15.99;95.91
3780;BME280;1905;52.482;9.802;2023-10-13T01:49:21;100641.53;;;16.01;95.77
3780;BME280;1905;52.482;9.802;2023-10-13T01:51:49;100640.38;;;16.05;96.28
3780;BME280;1905;52.482;9.802;2023-10-13T01:54:18;100629.72;;;16.05;95.06
3780;BME280;1905;52.482;9.802;2023-10-13T01:56:47;100622.47;;;16.07;96.25
3780;BME280;1905;52.482;9.802;2023-10-13T01:59:17;100626.00;;;16.08;95.82
3780;BME280;1905;52.482;9.802;2023-10-13T02:01:44;100632.19;;;16.08;96.53
3780;BME280;1905;52.482;9.802;2023-10-13T02:04:11;100626.84;;;16.08;96.08
3780;BME280;1905;52.482;9.802;2023-10-13T02:06:38;100616.19;;;16.08;95.04
3780;BME280;1905;52.482;9.802;2023-10-13T02:09:07;100608.22;;;16.08;93.42
3780;BME280;1905;52.482;9.802;2023-10-13T02:11:41;100619.59;;;16.11;92.71
3780;BME280;1905;52.482;9.802;2023-10-13T02:14:11;100608.94;;;16.11;93.08
3780;BME280;1905;52.482;9.802;2023-10-13T02:16:39;100604.47;;;16.11;92.29
3780;BME280;1905;52.482;9.802;2023-10-13T02:19:07;100612.34;;;16.13;92.02
3780;BME280;1905;52.482;9.802;2023-10-13T02:21:35;100614.06;;;16.14;91.44
3780;BME280;1905;52.482;9.802;2023-10-13T02:24:11;100618.63;;;16.12;93.09
3780;BME280;1905;52.482;9.802;2023-10-13T02:26:41;100608.75;;;16.14;96.55
3780;BME280;1905;52.482;9.802;2023-10-13T02:29:09;100607.16;;;16.11;94.23
3780;BME280;1905;52.482;9.802;2023-10-13T02:31:43;100611.50;;;16.12;94.08
3780;BME280;1905;52.482;9.802;2023-10-13T02:34:22;100600.75;;;16.14;92.27
3780;BME280;1905;52.482;9.802;2023-10-13T02:36:49;100599.78;;;16.15;95.12
3780;BME280;1905;52.482;9.802;2023-10-13T02:39:18;100595.41;;;16.14;97.00
3780;BME280;1905;52.482;9.802;2023-10-13T02:41:54;100585.50;;;16.16;98.35
3780;BME280;1905;52.482;9.802;2023-10-13T02:44:22;100590.09;;;16.14;96.02
3780;BME280;1905;52.482;9.802;2023-10-13T02:46:53;100589.13;;;16.15;96.08
3780;BME280;1905;52.482;9.802;2023-10-13T02:49:22;100573.13;;;16.15;94.91
3780;BME280;1905;52.482;9.802;2023-10-13T02:51:52;100573.69;;;16.20;98.95
3780;BME280;1905;52.482;9.802;2023-10-13T02:54:21;100580.91;;;16.18;98.45
3780;BME280;1905;52.482;9.802;2023-10-13T02:56:58;100575.59;;;16.18;98.35
3780;BME280;1905;52.482;9.802;2023-10-13T02:59:27;100573.13;;;16.15;96.50
3780;BME280;1905;52.482;9.802;2023-10-13T03:02:06;100576.56;;;16.17;96.12
3780;BME280;1905;52.482;9.802;2023-10-13T03:04:45;100570.06;;;16.21;98.31
3780;BME280;1905;52.482;9.802;2023-10-13T03:07:13;100572.72;;;16.21;99.18
3780;BME280;1905;52.482;9.802;2023-10-13T03:09:42;100570.06;;;16.21;98.21
3780;BME280;1905;52.482;9.802;2023-10-13T03:12:19;100561.19;;;16.20;99.07
3780;BME280;1905;52.482;9.802;2023-10-13T03:14:48;100560.38;;;16.20;98.41
3780;BME280;1905;52.482;9.802;2023-10-13T03:17:15;100556.72;;;16.21;97.56
3780;BME280;1905;52.482;9.802;2023-10-13T03:19:44;100555.78;;;16.22;96.99
3780;BME280;1905;52.482;9.802;2023-10-13T03:22:17;100545.00;;;16.23;96.56
3780;BME280;1905;52.482;9.802;2023-10-13T03:24:45;100552.91;;;16.25;96.18
3780;BME280;1905;52.482;9.802;2023-10-13T03:27:14;100545.66;;;16.27;96.89
3780;BME280;1905;52.482;9.802;2023-10-13T03:29:46;100547.56;;;16.25;97.10
3780;BME280;1905;52.482;9.802;2023-10-13T03:32:14;100544.91;;;16.25;95.10
3780;BME280;1905;52.482;9.802;2023-10-13T03:34:42;100548.31;;;16.27;94.33
3780;BME280;1905;52.482;9.802;2023-10-13T03:37:20;100542.25;;;16.25;94.66
3780;BME280;1905;52.482;9.802;2023-10-13T03:40:05;100536.72;;;16.28;96.28
3780;BME280;1905;52.482;9.802;2023-10-13T03:42:42;100534.03;;;16.28;97.04
3780;BME280;1905;52.482;9.802;2023-10-13T03:45:25;100535.84;;;16.27;98.03
3780;BME280;1905;52.482;9.802;2023-10-13T03:47:53;100533.28;;;16.26;97.23
3780;BME280;1905;52.482;9.802;2023-10-13T03:50:21;100518.78;;;16.30;97.30
3780;BME280;1905;52.482;9.802;2023-10-13T03:52:56;100519.66;;;16.30;96.00
3780;BME280;1905;52.482;9.802;2023-10-13T03:55:24;100513.47;;;16.30;96.47
3780;BME280;1905;52.482;9.802;2023-10-13T03:57:56;100524.97;;;16.30;94.42
3780;BME280;1905;52.482;9.802;2023-10-13T04:00:27;100518.78;;;16.30;94.42
3780;BME280;1905;52.482;9.802;2023-10-13T04:02:54;100515.16;;;16.31;93.67
3780;BME280;1905;52.482;9.802;2023-10-13T04:05:35;100517.81;;;16.31;92.71
3780;BME280;1905;52.482;9.802;2023-10-13T04:08:07;100509.81;;;16.31;92.91
3780;BME280;1905;52.482;9.802;2023-10-13T04:10:53;100510.66;;;16.31;92.27
3780;BME280;1905;52.482;9.802;2023-10-13T04:13:38;100507.16;;;16.31;92.40
3780;BME280;1905;52.482;9.802;2023-10-13T04:16:25;100499.16;;;16.31;92.22
3780;BME280;1905;52.482;9.802;2023-10-13T04:19:03;100495.53;;;16.32;92.82
3780;BME280;1905;52.482;9.802;2023-10-13T04:21:36;100492.88;;;16.32;92.06
3780;BME280;1905;52.482;9.802;2023-10-13T04:24:21;100487.44;;;16.33;92.26
3780;BME280;1905;52.482;9.802;2023-10-13T04:27:04;100493.59;;;16.34;92.15
3780;BME280;1905;52.482;9.802;2023-10-13T04:30:07;100482.94;;;16.34;92.56
3780;BME280;1905;52.482;9.802;2023-10-13T04:32:54;100482.13;;;16.33;93.02
3780;BME280;1905;52.482;9.802;2023-10-13T04:35:44;100481.13;;;16.34;92.86
3780;BME280;1905;52.482;9.802;2023-10-13T04:38:14;100470.38;;;16.36;93.24
3780;BME280;1905;52.482;9.802;2023-10-13T04:40:46;100464.06;;;16.37;93.95
3780;BME280;1905;52.482;9.802;2023-10-13T04:43:25;100459.59;;;16.37;94.87
3780;BME280;1905;52.482;9.802;2023-10-13T04:46:23;100459.72;;;16.36;94.18
3780;BME280;1905;52.482;9.802;2023-10-13T04:49:04;100453.41;;;16.37;93.72
3780;BME280;1905;52.482;9.802;2023-10-13T04:51:53;100448.09;;;16.37;93.08
3780;BME280;1905;52.482;9.802;2023-10-13T04:54:25;100442.75;;;16.37;94.66
3780;BME280;1905;52.482;9.802;2023-10-13T04:57:00;100433.81;;;16.38;93.51
3780;BME280;1905;52.482;9.802;2023-10-13T04:59:41;100431.13;;;16.38;93.51
3780;BME280;1905;52.482;9.802;2023-10-13T05:02:23;100432.22;;;16.35;94.36
3780;BME280;1905;52.482;9.802;2023-10-13T05:05:11;100428.56;;;16.36;93.71
3780;BME280;1905;52.482;9.802;2023-10-13T05:08:09;100422.41;;;16.36;95.75
3780;BME280;1905;52.482;9.802;2023-10-13T05:10:54;100419.84;;;16.34;95.38
3780;BME280;1905;52.482;9.802;2023-10-13T05:13:39;100427.97;;;16.33;94.77
3780;BME280;1905;52.482;9.802;2023-10-13T05:16:25;100417.16;;;16.34;94.92
3780;BME280;1905;52.482;9.802;2023-10-13T05:19:10;100414.63;;;16.33;94.15
3780;BME280;1905;52.482;9.802;2023-10-13T05:21:57;100415.56;;;16.32;94.61
3780;BME280;1905;52.482;9.802;2023-10-13T05:24:42;100421.66;;;16.34;96.39
3780;BME280;1905;52.482;9.802;2023-10-13T05:27:27;100412.69;;;16.35;94.73
3780;BME280;1905;52.482;9.802;2023-10-13T05:30:13;100418.03;;;16.35;95.83
3780;BME280;1905;52.482;9.802;2023-10-13T05:32:58;100415.38;;;16.35;95.07
3780;BME280;1905;52.482;9.802;2023-10-13T05:35:43;100417.06;;;16.36;95.80
3780;BME280;1905;52.482;9.802;2023-10-13T05:38:31;100410.03;;;16.35;95.55
3780;BME280;1905;52.482;9.802;2023-10-13T05:41:17;100407.25;;;16.36;96.22
3780;BME280;1905;52.482;9.802;2023-10-13T05:44:02;100402.03;;;16.35;95.32
3780;BME280;1905;52.482;9.802;2023-10-13T05:46:48;100391.03;;;16.39;96.11
3780;BME280;1905;52.482;9.802;2023-10-13T05:49:33;100389.97;;;16.42;96.55
3780;BME280;1905;52.482;9.802;2023-10-13T05:52:19;100381.22;;;16.40;97.07
3780;BME280;1905;52.482;9.802;2023-10-13T05:55:08;100379.28;;;16.42;96.12
3780;BME280;1905;52.482;9.802;2023-10-13T05:57:54;100377.41;;;16.44;97.97
3780;BME280;1905;52.482;9.802;2023-10-13T06:00:41;100370.13;;;16.46;97.73
3780;BME280;1905;52.482;9.802;2023-10-13T06:03:27;100371.59;;;16.50;100.00
3780;BME280;1905;52.482;9.802;2023-10-13T06:06:12;100370.34;;;16.43;97.21
3780;BME280;1905;52.482;9.802;2023-10-13T06:08:58;100379.84;;;16.47;98.53
3780;BME280;1905;52.482;9.802;2023-10-13T06:11:44;100378.84;;;16.48;98.80
3780;BME280;1905;52.482;9.802;2023-10-13T06:14:30;100383.34;;;16.47;97.82
3780;BME280;1905;52.482;9.802;2023-10-13T06:17:15;100383.13;;;16.50;97.69
3780;BME280;1905;52.482;9.802;2023-10-13T06:20:00;100383.97;;;16.51;99.09
3780;BME280;1905;52.482;9.802;2023-10-13T06:22:47;100378.44;;;16.54;98.13
3780;BME280;1905;52.482;9.802;2023-10-13T06:25:32;100378.22;;;16.57;98.46
3780;BME280;1905;52.482;9.802;2023-10-13T06:28:19;100378.22;;;16.57;98.96
3780;BME280;1905;52.482;9.802;2023-10-13T06:31:05;100366.34;;;16.61;99.12
3780;BME280;1905;52.482;9.802;2023-10-13T06:33:33;100367.34;;;16.60;98.61
3780;BME280;1905;52.482;9.802;2023-10-13T06:36:02;100354.75;;;16.62;99.24
3780;BME280;1905;52.482;9.802;2023-10-13T06:38:35;100353.88;;;16.61;97.97
3780;BME280;1905;52.482;9.802;2023-10-13T06:41:03;100362.50;;;16.65;98.00
3780;BME280;1905;52.482;9.802;2023-10-13T06:43:33;100353.44;;;16.67;99.19
3780;BME280;1905;52.482;9.802;2023-10-13T06:46:06;100350.88;;;16.66;98.36
3780;BME280;1905;52.482;9.802;2023-10-13T06:48:41;100357.91;;;16.67;97.44
3780;BME280;1905;52.482;9.802;2023-10-13T06:51:10;100365.56;;;16.72;98.46
3780;BME280;1905;52.482;9.802;2023-10-13T06:53:44;100358.41;;;16.72;98.37
3780;BME280;1905;52.482;9.802;2023-10-13T06:56:14;100357.47;;;16.73;97.56
3780;BME280;1905;52.482;9.802;2023-10-13T06:58:45;100369.81;;;16.74;97.86
3780;BME280;1905;52.482;9.802;2023-10-13T07:01:13;100361.38;;;16.80;100.00
3780;BME280;1905;52.482;9.802;2023-10-13T07:03:42;100349.00;;;16.79;99.60
3780;BME280;1905;52.482;9.802;2023-10-13T07:06:10;100342.69;;;16.80;100.00
3780;BME280;1905;52.482;9.802;2023-10-13T07:08:44;100339.94;;;16.82;100.00
3780;BME280;1905;52.482;9.802;2023-10-13T07:11:18;100331.94;;;16.82;99.12
3780;BME280;1905;52.482;9.802;2023-10-13T07:13:50;100327.31;;;16.84;99.41
3780;BME280;1905;52.482;9.802;2023-10-13T07:16:19;100326.25;;;16.86;100.00
3780;BME280;1905;52.482;9.802;2023-10-13T07:18:55;100322.38;;;16.90;100.00
3780;BME280;1905;52.482;9.802;2023-10-13T07:21:31;100310.97;;;16.88;100.00
3780;BME280;1905;52.482;9.802;2023-10-13T07:23:59;100300.91;;;16.92;100.00
3780;BME280;1905;52.482;9.802;2023-10-13T07:26:36;100295.72;;;16.90;98.13
3780;BME280;1905;52.482;9.802;2023-10-13T07:29:11;100303.34;;;16.95;98.19
3780;BME280;1905;52.482;9.802;2023-10-13T07:31:39;100302.28;;;16.97;99.55
3780;BME280;1905;52.482;9.802;2023-10-13T07:34:07;100289.19;;;17.05;100.00
3780;BME280;1905;52.482;9.802;2023-10-13T07:36:52;100282.38;;;17.01;98.18
3780;BME280;1905;52.482;9.802;2023-10-13T07:39:21;100286.66;;;17.04;98.27
3780;BME280;1905;52.482;9.802;2023-10-13T07:41:51;100275.72;;;17.07;98.33
3780;BME280;1905;52.482;9.802;2023-10-13T07:44:22;100265.91;;;17.07;98.22
3780;BME280;1905;52.482;9.802;2023-10-13T07:46:55;100267.38;;;17.11;99.75
3780;BME280;1905;52.482;9.802;2023-10-13T07:49:29;100254.03;;;17.11;100.00
3780;BME280;1905;52.482;9.802;2023-10-13T07:51:59;100242.50;;;17.11;98.23
3780;BME280;1905;52.482;9.802;2023-10-13T07:54:42;100244.94;;;17.14;99.39
3780;BME280;1905;52.482;9.802;2023-10-13T07:57:10;100235.72;;;17.18;100.00
3780;BME280;1905;52.482;9.802;2023-10-13T07:59:42;100234.88;;;17.17;99.54
3780;BME280;1905;52.482;9.802;2023-10-13T08:02:16;100238.28;;;17.19;100.00
3780;BME280;1905;52.482;9.802;2023-10-13T08:05:10;100224.69;;;17.22;100.00
3780;BME280;1905;52.482;9.802;2023-10-13T08:07:41;100229.28;;;17.20;100.00
3780;BME280;1905;52.482;9.802;2023-10-13T08:10:10;100228.19;;;17.23;99.75
3780;BME280;1905;52.482;9.802;2023-10-13T08:12:42;100229.78;;;17.25;99.20
3780;BME280;1905;52.482;9.802;2023-10-13T08:15:12;100232.19;;;17.28;99.00
3780;BME280;1905;52.482;9.802;2023-10-13T08:17:48;100223.94;;;17.32;98.25
3780;BME280;1905;52.482;9.802;2023-10-13T08:20:19;100220.19;;;17.34;99.24
3780;BME280;1905;52.482;9.802;2023-10-13T08:22:48;100226.28;;;17.36;98.57
3780;BME280;1905;52.482;9.802;2023-10-13T08:25:16;100231.47;;;17.38;99.77
3780;BME280;1905;52.482;9.802;2023-10-13T08:28:12;100231.25;;;17.41;100.00
3780;BME280;1905;52.482;9.802;2023-10-13T08:31:23;100236.09;;;17.47;100.00
3780;BME280;1905;52.482;9.802;2023-10-13T08:33:53;100230.28;;;17.53;100.00
3780;BME280;1905;52.482;9.802;2023-10-13T08:36:32;100231.75;;;17.57;100.00
3780;BME280;1905;52.482;9.802;2023-10-13T08:39:04;100228.84;;;17.60;100.00
3780;BME280;1905;52.482;9.802;2023-10-13T08:42:03;100223.38;;;17.61;100.00
3780;BME280;1905;52.482;9.802;2023-10-13T08:44:44;100225.69;;;17.66;100.00
3780;BME280;1905;52.482;9.802;2023-10-13T08:47:15;100225.19;;;17.72;100.00
3780;BME280;1905;52.482;9.802;2023-10-13T08:49:51;100228.22;;;17.78;100.00
3780;BME280;1905;52.482;9.802;2023-10-13T08:52:21;100227.13;;;17.81;100.00
3780;BME280;1905;52.482;9.802;2023-10-13T08:55:13;100220.56;;;17.85;100.00
3780;BME280;1905;52.482;9.802;2023-10-13T08:57:55;100226.38;;;17.90;100.00
3780;BME280;1905;52.482;9.802;2023-10-13T09:00:29;100237.53;;;17.95;100.00
3780;BME280;1905;52.482;9.802;2023-10-13T09:03:20;100227.56;;;17.97;100.00
3780;BME280;1905;52.482;9.802;2023-10-13T09:05:56;100226.34;;;18.01;100.00
3780;BME280;1905;52.482;9.802;2023-10-13T09:08:33;100224.88;;;18.08;100.00
3780;BME280;1905;52.482;9.802;2023-10-13T09:11:11;100221.09;;;18.11;100.00
3780;BME280;1905;52.482;9.802;2023-10-13T09:13:39;100230.44;;;18.16;100.00
3780;BME280;1905;52.482;9.802;2023-10-13T09:16:14;100218.06;;;18.15;100.00
3780;BME280;1905;52.482;9.802;2023-10-13T09:18:50;100215.00;;;18.20;100.00
3780;BME280;1905;52.482;9.802;2023-10-13T09:21:19;100219.97;;;18.24;100.00
3780;BME280;1905;52.482;9.802;2023-10-13T09:24:14;100211.81;;;18.26;100.00
3780;BME280;1905;52.482;9.802;2023-10-13T09:26:49;100199.78;;;18.31;100.00
3780;BME280;1905;52.482;9.802;2023-10-13T09:29:20;100213.16;;;18.31;100.00
3780;BME280;1905;52.482;9.802;2023-10-13T09:31:59;100197.69;;;18.35;100.00
3780;BME280;1905;52.482;9.802;2023-10-13T09:34:31;100191.72;;;18.42;100.00
3780;BME280;1905;52.482;9.802;2023-10-13T09:37:02;100184.41;;;18.44;100.00
3780;BME280;1905;52.482;9.802;2023-10-13T09:39:32;100175.91;;;18.51;100.00
3780;BME280;1905;52.482;9.802;2023-10-13T09:42:11;100160.66;;;18.51;100.00
3780;BME280;1905;52.482;9.802;2023-10-13T09:44:42;100151.44;;;18.55;100.00
3780;BME280;1905;52.482;9.802;2023-10-13T09:47:20;100132.31;;;18.60;100.00
3780;BME280;1905;52.482;9.802;2023-10-13T09:50:00;100138.09;;;18.65;100.00
3780;BME280;1905;52.482;9.802;2023-10-13T09:52:32;100139.53;;;18.69;99.43
3780;BME280;1905;52.482;9.802;2023-10-13T09:55:11;100131.00;;;18.75;99.93
3780;BME280;1905;52.482;9.802;2023-10-13T09:57:44;100135.25;;;18.77;100.00
3780;BME280;1905;52.482;9.802;2023-10-13T10:00:17;100128.25;;;18.86;100.00
3780;BME280;1905;52.482;9.802;2023-10-13T10:02:56;100128.94;;;18.88;100.00
3780;BME280;1905;52.482;9.802;2023-10-13T10:05:42;100125.16;;;18.90;100.00
3780;BME280;1905;52.482;9.802;2023-10-13T10:08:23;100114.47;;;19.00;100.00
3780;BME280;1905;52.482;9.802;2023-10-13T10:11:04;100113.25;;;19.04;99.06
3780;BME280;1905;52.482;9.802;2023-10-13T10:13:38;100111.97;;;19.08;99.11
3780;BME280;1905;52.482;9.802;2023-10-13T10:16:11;100106.09;;;19.14;100.00
3780;BME280;1905;52.482;9.802;2023-10-13T10:18:41;100091.47;;;19.18;98.83
3780;BME280;1905;52.482;9.802;2023-10-13T10:21:10;100096.25;;;19.24;100.00
3780;BME280;1905;52.482;9.802;2023-10-13T10:23:38;100090.34;;;19.30;98.50
3780;BME280;1905;52.482;9.802;2023-10-13T10:26:09;100082.50;;;19.38;100.00
3780;BME280;1905;52.482;9.802;2023-10-13T10:28:42;100077.59;;;19.43;100.00
3780;BME280;1905;52.482;9.802;2023-10-13T10:31:11;100070.72;;;19.50;100.00
3780;BME280;1905;52.482;9.802;2023-10-13T10:33:41;100077.47;;;19.54;99.82
3780;BME280;1905;52.482;9.802;2023-10-13T10:36:10;100072.53;;;19.59;100.00
3780;BME280;1905;52.482;9.802;2023-10-13T10:38:53;100053.22;;;19.66;100.00
3780;BME280;1905;52.482;9.802;2023-10-13T10:41:26;100060.56;;;19.73;100.00
3780;BME280;1905;52.482;9.802;2023-10-13T10:44:09;100056.63;;;19.77;99.53
3780;BME280;1905;52.482;9.802;2023-10-13T10:46:42;100050.72;;;19.83;98.55
3780;BME280;1905;52.482;9.802;2023-10-13T10:49:23;100047.31;;;19.91;99.86
3780;BME280;1905;52.482;9.802;2023-10-13T10:51:59;100042.25;;;19.97;99.49
3780;BME280;1905;52.482;9.802;2023-10-13T10:54:30;100039.13;;;20.02;97.36
3780;BME280;1905;52.482;9.802;2023-10-13T10:57:00;100030.66;;;20.06;99.41
3780;BME280;1905;52.482;9.802;2023-10-13T10:59:38;100014.56;;;20.16;98.27
3780;BME280;1905;52.482;9.802;2023-10-13T11:02:06;100017.66;;;20.21;99.63
3780;BME280;1905;52.482;9.802;2023-10-13T11:04:35;100008.06;;;20.28;99.32
3780;BME280;1905;52.482;9.802;2023-10-13T11:07:08;100007.66;;;20.33;98.92
3780;BME280;1905;52.482;9.802;2023-10-13T11:09:36;100002.41;;;20.31;97.31
3780;BME280;1905;52.482;9.802;2023-10-13T11:12:11;100006.22;;;20.38;98.22
3780;BME280;1905;52.482;9.802;2023-10-13T11:14:43;99999.56;;;20.42;98.03
3780;BME280;1905;52.482;9.802;2023-10-13T11:17:19;100006.84;;;20.50;96.30
3780;BME280;1905;52.482;9.802;2023-10-13T11:19:52;100003.19;;;20.51;96.94
3780;BME280;1905;52.482;9.802;2023-10-13T11:22:22;100001.75;;;20.56;95.86
3780;BME280;1905;52.482;9.802;2023-10-13T11:25:01;100005.13;;;20.58;95.14
3780;BME280;1905;52.482;9.802;2023-10-13T11:27:36;99989.31;;;20.65;94.70
3780;BME280;1905;52.482;9.802;2023-10-13T11:30:22;99986.47;;;20.66;94.11
3780;BME280;1905;52.482;9.802;2023-10-13T11:32:57;99980.81;;;20.69;94.28
3780;BME280;1905;52.482;9.802;2023-10-13T11:35:25;99969.78;;;20.72;94.37
3780;BME280;1905;52.482;9.802;2023-10-13T11:37:57;99972.84;;;20.77;93.55
3780;BME280;1905;52.482;9.802;2023-10-13T11:40:30;99972.00;;;20.77;93.29
3780;BME280;1905;52.482;9.802;2023-10-13T11:43:26;99969.19;;;20.78;92.64
3780;BME280;1905;52.482;9.802;2023-10-13T11:45:58;99964.50;;;20.81;92.79
3780;BME280;1905;52.482;9.802;2023-10-13T11:48:45;99957.81;;;20.85;92.37
3780;BME280;1905;52.482;9.802;2023-10-13T11:51:14;99953.16;;;20.87;92.91
3780;BME280;1905;52.482;9.802;2023-10-13T11:53:51;99949.72;;;20.94;91.53
3780;BME280;1905;52.482;9.802;2023-10-13T11:56:20;99951.56;;;20.94;91.91
3780;BME280;1905;52.482;9.802;2023-10-13T11:58:48;99943.59;;;21.02;92.22
3780;BME280;1905;52.482;9.802;2023-10-13T12:01:17;99942.44;;;21.04;91.66
3780;BME280;1905;52.482;9.802;2023-10-13T12:03:48;99935.66;;;21.10;90.75
3780;BME280;1905;52.482;9.802;2023-10-13T12:06:34;99939.03;;;21.12;90.80
3780;BME280;1905;52.482;9.802;2023-10-13T12:09:14;99941.56;;;21.13;90.59
3780;BME280;1905;52.482;9.802;2023-10-13T12:12:06;99935.06;;;21.16;90.70
3780;BME280;1905;52.482;9.802;2023-10-13T12:14:37;99936.59;;;21.18;91.11
3780;BME280;1905;52.482;9.802;2023-10-13T12:17:18;99929.38;;;21.19;90.23
3780;BME280;1905;52.482;9.802;2023-10-13T12:19:52;99920.00;;;21.23;90.46
3780;BME280;1905;52.482;9.802;2023-10-13T12:22:19;99914.63;;;21.23;90.35
3780;BME280;1905;52.482;9.802;2023-10-13T12:24:56;99903.06;;;21.22;90.66
3780;BME280;1905;52.482;9.802;2023-10-13T12:27:23;99914.31;;;21.26;89.87
3780;BME280;1905;52.482;9.802;2023-10-13T12:30:01;99906.94;;;21.28;89.62
3780;BME280;1905;52.482;9.802;2023-10-13T12:32:34;99894.22;;;21.30;89.82
3780;BME280;1905;52.482;9.802;2023-10-13T12:35:02;99891.69;;;21.28;89.57
3780;BME280;1905;52.482;9.802;2023-10-13T12:37:54;99886.53;;;21.35;88.49
3780;BME280;1905;52.482;9.802;2023-10-13T12:40:33;99883.69;;;21.36;89.41
3780;BME280;1905;52.482;9.802;2023-10-13T12:43:18;99878.19;;;21.38;89.63
3780;BME280;1905;52.482;9.802;2023-10-13T12:46:04;99862.75;;;21.40;89.17
3780;BME280;1905;52.482;9.802;2023-10-13T12:48:49;99860.41;;;21.45;88.73
3780;BME280;1905;52.482;9.802;2023-10-13T12:51:30;99851.06;;;21.49;88.25
3780;BME280;1905;52.482;9.802;2023-10-13T12:54:18;99854.13;;;21.54;88.31
3780;BME280;1905;52.482;9.802;2023-10-13T12:56:54;99852.28;;;21.55;88.31
3780;BME280;1905;52.482;9.802;2023-10-13T12:59:24;99845.56;;;21.59;87.57
3780;BME280;1905;52.482;9.802;2023-10-13T13:01:53;99846.78;;;21.64;87.58
3780;BME280;1905;52.482;9.802;2023-10-13T13:04:21;99844.78;;;21.66;86.99
3780;BME280;1905;52.482;9.802;2023-10-13T13:06:52;99836.72;;;21.66;87.88
3780;BME280;1905;52.482;9.802;2023-10-13T13:09:20;99832.72;;;21.70;87.17
3780;BME280;1905;52.482;9.802;2023-10-13T13:11:53;99832.72;;;21.70;86.58
3780;BME280;1905;52.482;9.802;2023-10-13T13:14:26;99839.78;;;21.71;87.33
3780;BME280;1905;52.482;9.802;2023-10-13T13:16:55;99827.03;;;21.73;87.07
3780;BME280;1905;52.482;9.802;2023-10-13T13:19:32;99832.41;;;21.73;86.32
3780;BME280;1905;52.482;9.802;2023-10-13T13:22:02;99827.88;;;21.74;86.46
3780;BME280;1905;52.482;9.802;2023-10-13T13:24:31;99830.94;;;21.79;86.74
3780;BME280;1905;52.482;9.802;2023-10-13T13:26:59;99817.63;;;21.77;85.49
3780;BME280;1905;52.482;9.802;2023-10-13T13:29:30;99831.78;;;21.79;86.13
3780;BME280;1905;52.482;9.802;2023-10-13T13:31:58;99822.69;;;21.80;85.78
3780;BME280;1905;52.482;9.802;2023-10-13T13:34:27;99799.16;;;21.82;85.07
3780;BME280;1905;52.482;9.802;2023-10-13T13:36:56;99802.56;;;21.84;84.96
3780;BME280;1905;52.482;9.802;2023-10-13T13:39:27;99804.22;;;21.85;84.43
3780;BME280;1905;52.482;9.802;2023-10-13T13:41:56;99802.56;;;21.84;85.27
3780;BME280;1905;52.482;9.802;2023-10-13T13:44:24;99791.81;;;21.84;84.83
3780;BME280;1905;52.482;9.802;2023-10-13T13:46:59;99782.72;;;21.85;84.67
3780;BME280;1905;52.482;9.802;2023-10-13T13:49:26;99782.44;;;21.88;82.96
3780;BME280;1905;52.482;9.802;2023-10-13T13:52:06;99785.41;;;21.85;84.99
3780;BME280;1905;52.482;9.802;2023-10-13T13:54:34;99771.97;;;21.85;85.99